Time;durP1;ratioP1;P1;durP2;ratioP2;P2;SDS_P1;SDS_P2;PMS_P1;PMS_P2;Temp;Humidity;BMP_temperature;BMP_pressure;BME280_temperature;BME280_humidity;BME280_pressure;Samples;Min_cycle;Max_cycle;Signal;HPM_P1;HPM_P2
2022/03/19 05:01:49;;;;;;;72.97;41.57;;;5.20;99.90;;;;;;5359410;23;20500;-78
2022/03/19 05:04:16;;;;;;;68.17;38.77;;;5.10;99.90;;;;;;4970232;28;20448;-78
2022/03/19 05:06:43;;;;;;;69.80;38.33;;;5.20;99.90;;;;;;4969880;28;20729;-78
2022/03/19 05:11:54;;;;;;;71.40;39.33;;;5.20;99.90;;;;;;4970057;28;20511;-78
2022/03/19 05:14:21;;;;;;;66.47;37.73;;;5.20;99.90;;;;;;4970164;28;20947;-78
2022/03/19 05:16:49;;;;;;;70.57;39.97;;;5.20;99.90;;;;;;4969848;28;20479;-78
2022/03/19 05:19:16;;;;;;;70.57;40.43;;;5.10;99.90;;;;;;4970039;28;20463;-78
2022/03/19 05:21:42;;;;;;;64.97;40.53;;;5.10;99.90;;;;;;4969912;28;20557;-78
2022/03/19 05:24:09;;;;;;;62.77;37.93;;;5.00;99.90;;;;;;4969974;28;20849;-78
2022/03/19 05:26:37;;;;;;;71.97;37.63;;;5.00;99.90;;;;;;4969585;28;20463;-78
2022/03/19 05:29:04;;;;;;;71.53;40.40;;;5.10;99.90;;;;;;4970124;28;20471;-78
2022/03/19 05:31:31;;;;;;;70.43;38.60;;;5.10;99.90;;;;;;4969468;28;20504;-78
2022/03/19 05:36:44;;;;;;;71.80;38.40;;;5.00;99.90;;;;;;4969333;28;20620;-78
2022/03/19 05:39:10;;;;;;;66.70;38.30;;;5.00;99.90;;;;;;4969429;28;20452;-78
2022/03/19 05:41:37;;;;;;;70.97;38.63;;;5.00;99.90;;;;;;4970091;28;20480;-78
2022/03/19 05:44:04;;;;;;;64.50;36.70;;;5.00;99.90;;;;;;4970221;28;20448;-78
2022/03/19 05:46:31;;;;;;;67.70;37.83;;;5.00;99.90;;;;;;4969503;28;20467;-78
2022/03/19 05:49:00;;;;;;;62.57;38.07;;;5.00;99.90;;;;;;4970126;28;20456;-78
2022/03/19 05:51:26;;;;;;;67.67;37.80;;;4.90;99.90;;;;;;4969930;28;20499;-78
2022/03/19 05:53:53;;;;;;;70.90;38.73;;;4.90;99.90;;;;;;4969848;28;20831;-78
2022/03/19 05:56:20;;;;;;;71.80;37.53;;;4.90;99.90;;;;;;4969257;28;20456;-77
2022/03/19 05:58:47;;;;;;;66.37;38.40;;;4.90;99.90;;;;;;4969366;28;20999;-78
2022/03/19 06:01:14;;;;;;;65.90;36.77;;;4.90;99.90;;;;;;4969006;28;20562;-78
2022/03/19 06:03:40;;;;;;;64.73;37.43;;;4.90;99.90;;;;;;4968351;28;21042;-78
2022/03/19 06:06:09;;;;;;;68.73;39.33;;;4.90;99.90;;;;;;4968857;28;20487;-78
2022/03/19 06:08:35;;;;;;;66.60;39.50;;;4.90;99.90;;;;;;4968684;28;20464;-78
2022/03/19 06:11:03;;;;;;;69.23;38.03;;;4.90;99.90;;;;;;4969300;28;20484;-78
2022/03/19 06:13:30;;;;;;;62.50;34.80;;;4.90;99.90;;;;;;4968678;28;20519;-78
2022/03/19 06:15:57;;;;;;;69.10;37.73;;;4.90;99.90;;;;;;4969272;28;20456;-78
2022/03/19 06:18:24;;;;;;;68.93;37.50;;;4.90;99.90;;;;;;4968806;28;20471;-66
2022/03/19 06:20:50;;;;;;;67.97;37.03;;;4.90;99.90;;;;;;4969152;28;20484;-66
2022/03/19 06:23:19;;;;;;;68.13;37.30;;;4.90;99.90;;;;;;4968994;28;20484;-66
2022/03/19 06:25:46;;;;;;;69.60;37.57;;;5.00;99.90;;;;;;4968976;28;20555;-76
2022/03/19 06:28:14;;;;;;;65.47;35.80;;;5.00;99.90;;;;;;4969164;28;20457;-76
2022/03/19 06:30:41;;;;;;;61.43;34.70;;;5.00;99.90;;;;;;4969485;28;20480;-76
2022/03/19 06:33:08;;;;;;;60.50;36.10;;;5.00;99.90;;;;;;4969134;28;20488;-76
2022/03/19 06:38:24;;;;;;;62.60;34.97;;;5.10;99.90;;;;;;4968385;28;20939;-76
2022/03/19 06:40:51;;;;;;;61.83;33.70;;;5.10;99.90;;;;;;4969032;28;20481;-76
2022/03/19 06:43:18;;;;;;;62.27;35.57;;;5.20;99.90;;;;;;4960212;28;20528;-76
2022/03/19 06:45:45;;;;;;;64.87;36.20;;;5.20;99.90;;;;;;4969111;28;20453;-76
2022/03/19 06:48:12;;;;;;;58.73;34.30;;;5.30;99.90;;;;;;4968444;28;20463;-77
2022/03/19 06:50:39;;;;;;;61.53;35.50;;;5.40;99.90;;;;;;4969450;28;20476;-76
2022/03/19 06:53:06;;;;;;;59.40;35.67;;;5.40;99.90;;;;;;4968731;28;20586;-76
2022/03/19 06:55:34;;;;;;;53.50;32.67;;;5.50;99.90;;;;;;4968557;28;20471;-76
2022/03/19 06:58:01;;;;;;;63.73;35.87;;;5.50;99.90;;;;;;4968506;28;20461;-76
2022/03/19 07:00:28;;;;;;;56.23;34.20;;;5.50;99.90;;;;;;4969073;28;20460;-76
2022/03/19 07:02:56;;;;;;;61.00;34.13;;;5.60;99.90;;;;;;4968833;28;20458;-76
2022/03/19 07:05:24;;;;;;;56.90;33.57;;;5.70;99.90;;;;;;4968526;28;20472;-76
2022/03/19 07:07:52;;;;;;;55.80;33.37;;;5.70;99.90;;;;;;4968138;28;21278;-76
2022/03/19 07:10:19;;;;;;;57.37;33.07;;;5.80;99.90;;;;;;4968899;28;20449;-76
2022/03/19 07:12:48;;;;;;;60.13;35.67;;;5.90;99.90;;;;;;4968494;28;20511;-77
2022/03/19 07:15:16;;;;;;;60.03;32.87;;;5.90;99.90;;;;;;4968547;28;20475;-77
2022/03/19 07:17:44;;;;;;;61.87;32.70;;;6.00;99.90;;;;;;4967492;28;20463;-76
2022/03/19 07:20:12;;;;;;;53.03;34.00;;;6.10;99.90;;;;;;4968006;28;21333;-76
2022/03/19 07:22:50;;;;;;;53.00;31.90;;;6.10;99.90;;;;;;4968184;28;20456;-76
2022/03/19 07:25:18;;;;;;;55.50;30.90;;;6.20;99.90;;;;;;4967453;28;20947;-76
2022/03/19 07:27:47;;;;;;;54.50;32.53;;;6.20;99.90;;;;;;4967556;28;20453;-76
2022/03/19 07:30:14;;;;;;;50.13;29.67;;;6.40;99.90;;;;;;4968199;28;20461;-77
2022/03/19 07:32:41;;;;;;;49.53;30.27;;;6.40;99.90;;;;;;4967683;28;20507;-77
2022/03/19 07:35:09;;;;;;;54.43;31.37;;;6.50;99.90;;;;;;4968466;28;20460;-78
2022/03/19 07:37:37;;;;;;;57.43;30.57;;;6.60;99.90;;;;;;4967489;28;20456;-77
2022/03/19 07:40:05;;;;;;;51.33;30.23;;;6.60;99.90;;;;;;4968926;28;20464;-77
2022/03/19 07:42:31;;;;;;;45.67;29.43;;;6.70;99.90;;;;;;4967861;28;20527;-77
2022/03/19 07:45:00;;;;;;;50.23;30.43;;;6.80;99.90;;;;;;4968312;28;20460;-78
2022/03/19 07:47:26;;;;;;;53.20;32.63;;;6.90;99.90;;;;;;4967976;28;20492;-77
2022/03/19 07:49:53;;;;;;;53.37;29.10;;;7.00;99.90;;;;;;4968814;28;20467;-78
2022/03/19 07:52:20;;;;;;;50.57;28.23;;;7.10;99.90;;;;;;4968153;28;20503;-78
2022/03/19 07:54:47;;;;;;;46.83;27.60;;;7.10;99.90;;;;;;4967771;28;20464;-77
2022/03/19 07:57:14;;;;;;;47.37;28.10;;;7.30;99.90;;;;;;4967313;28;20464;-78
2022/03/19 07:59:41;;;;;;;50.53;28.43;;;7.40;99.90;;;;;;4967409;28;20560;-76
2022/03/19 08:02:09;;;;;;;50.83;30.00;;;7.50;99.90;;;;;;4967212;28;20488;-77
2022/03/19 08:04:36;;;;;;;42.50;26.90;;;7.70;99.90;;;;;;4967123;28;20976;-77
2022/03/19 08:07:03;;;;;;;44.37;27.60;;;7.80;99.90;;;;;;4965172;28;20626;-77
2022/03/19 08:09:30;;;;;;;42.83;27.30;;;7.90;99.90;;;;;;4965976;28;20543;-77
2022/03/19 08:11:57;;;;;;;47.97;28.73;;;7.90;99.90;;;;;;4966593;28;20478;-77
2022/03/19 08:14:24;;;;;;;46.17;29.60;;;8.10;99.90;;;;;;4966672;28;20560;-77
2022/03/19 08:16:51;;;;;;;40.20;26.27;;;8.10;99.90;;;;;;4966378;28;20460;-77
2022/03/19 08:19:19;;;;;;;47.60;28.30;;;8.30;99.90;;;;;;4966308;28;20456;-77
2022/03/19 08:21:46;;;;;;;49.63;27.50;;;8.40;99.90;;;;;;4966372;28;20519;-75
2022/03/19 08:24:13;;;;;;;41.93;28.40;;;8.50;99.90;;;;;;4966877;28;20460;-75
2022/03/19 08:26:40;;;;;;;39.90;26.10;;;8.50;99.90;;;;;;4965909;28;20463;-75
2022/03/19 08:29:07;;;;;;;48.60;29.90;;;8.70;99.90;;;;;;4966752;28;20464;-75
2022/03/19 08:31:34;;;;;;;43.53;27.40;;;8.80;99.90;;;;;;4967432;28;20492;-78
2022/03/19 08:34:01;;;;;;;47.83;28.67;;;9.00;99.90;;;;;;4967472;28;20492;-75
2022/03/19 08:36:30;;;;;;;46.33;29.70;;;9.10;99.90;;;;;;4966162;28;20488;-75
2022/03/19 08:41:41;;;;;;;45.43;28.60;;;9.40;99.90;;;;;;4966691;28;20475;-76
2022/03/19 08:44:07;;;;;;;46.60;28.07;;;9.50;99.90;;;;;;4966742;28;20457;-76
2022/03/19 08:46:34;;;;;;;46.63;28.07;;;9.70;99.90;;;;;;4965794;28;20452;-76
2022/03/19 08:49:01;;;;;;;47.13;27.50;;;10.00;99.90;;;;;;4966386;28;20461;-76
2022/03/19 08:51:41;;;;;;;42.57;26.63;;;10.00;99.90;;;;;;4966335;28;20854;-78
2022/03/19 08:54:10;;;;;;;44.97;27.30;;;10.00;99.90;;;;;;4966416;28;20507;-78
2022/03/19 08:56:37;;;;;;;46.90;26.53;;;10.10;99.90;;;;;;4966049;28;20499;-77
2022/03/19 08:59:04;;;;;;;49.40;29.60;;;10.20;99.90;;;;;;4966489;28;20471;-77
2022/03/19 09:01:32;;;;;;;42.10;27.10;;;10.30;99.90;;;;;;4966096;28;20494;-77
2022/03/19 09:03:59;;;;;;;43.43;28.77;;;10.40;99.90;;;;;;4966212;28;20467;-77
2022/03/19 09:06:26;;;;;;;45.20;28.80;;;10.50;99.90;;;;;;4965824;28;20456;-77
2022/03/19 09:08:54;;;;;;;46.03;31.90;;;10.70;99.90;;;;;;4966237;28;20455;-77
2022/03/19 09:11:23;;;;;;;43.97;29.70;;;11.00;99.90;;;;;;4966108;28;20486;-77
2022/03/19 09:13:53;;;;;;;46.93;30.33;;;11.10;99.90;;;;;;4966267;28;20500;-77
2022/03/19 09:16:21;;;;;;;48.27;29.33;;;11.10;99.90;;;;;;4966650;28;20482;-77
2022/03/19 09:18:49;;;;;;;47.30;30.03;;;11.20;99.90;;;;;;4966672;28;20457;-77
2022/03/19 09:21:17;;;;;;;45.03;30.33;;;11.50;99.90;;;;;;4968464;28;20574;-77
2022/03/19 09:23:45;;;;;;;49.67;30.90;;;11.60;99.90;;;;;;4968651;28;20523;-78
2022/03/19 09:26:13;;;;;;;48.40;30.37;;;11.80;99.90;;;;;;4967104;28;20464;-77
2022/03/19 09:28:40;;;;;;;45.13;29.00;;;11.80;99.90;;;;;;4966544;28;20459;-77
2022/03/19 09:31:07;;;;;;;53.57;31.23;;;11.90;99.90;;;;;;4966469;28;20494;-77
2022/03/19 09:33:34;;;;;;;45.83;29.63;;;11.90;99.90;;;;;;4966788;28;21059;-77
2022/03/19 09:36:01;;;;;;;43.63;29.90;;;12.10;99.90;;;;;;4967334;28;20973;-78
2022/03/19 09:38:29;;;;;;;46.33;30.50;;;12.00;99.90;;;;;;4966535;28;20463;-77
2022/03/19 09:40:56;;;;;;;46.20;28.13;;;12.10;99.90;;;;;;4966939;28;20764;-77
2022/03/19 09:43:25;;;;;;;44.80;28.77;;;12.20;99.90;;;;;;4966265;28;20453;-78
2022/03/19 09:45:52;;;;;;;48.87;29.53;;;12.60;99.90;;;;;;4965784;28;20471;-77
2022/03/19 09:48:19;;;;;;;40.03;27.67;;;12.70;99.90;;;;;;4968033;28;21055;-77
2022/03/19 09:50:46;;;;;;;47.37;29.90;;;13.20;99.90;;;;;;4969562;28;20698;-78
2022/03/19 09:53:16;;;;;;;49.67;29.47;;;13.50;99.90;;;;;;4969698;28;20497;-77
2022/03/19 09:55:43;;;;;;;46.93;28.50;;;13.60;99.90;;;;;;4969683;28;21093;-77
2022/03/19 09:58:12;;;;;;;43.13;28.87;;;13.70;99.90;;;;;;4969464;28;20462;-77
2022/03/19 10:00:40;;;;;;;39.10;26.60;;;13.90;99.90;;;;;;4970249;28;20489;-77
2022/03/19 10:03:10;;;;;;;45.97;28.97;;;14.10;99.90;;;;;;4970241;28;20460;-77
2022/03/19 10:08:39;;;;;;;39.20;27.30;;;14.40;99.90;;;;;;4969300;28;20519;-77
2022/03/19 10:11:10;;;;;;;43.67;27.80;;;14.50;99.90;;;;;;4969723;28;20480;-77
2022/03/19 10:13:38;;;;;;;35.10;23.87;;;14.30;99.90;;;;;;4969876;28;20492;-77
2022/03/19 10:16:07;;;;;;;29.67;21.13;;;14.50;99.90;;;;;;4969643;28;20971;-77
2022/03/19 10:18:34;;;;;;;27.13;19.80;;;14.40;99.90;;;;;;4968954;28;20457;-78
2022/03/19 10:21:05;;;;;;;28.70;18.70;;;14.30;99.90;;;;;;4969297;28;20480;-77
2022/03/19 10:23:39;;;;;;;29.30;19.70;;;14.50;99.90;;;;;;4969470;28;20459;-78
2022/03/19 10:26:06;;;;;;;34.20;20.63;;;14.60;99.90;;;;;;4970019;28;20495;-78
2022/03/19 10:28:35;;;;;;;26.97;19.07;;;14.70;99.90;;;;;;4969390;28;20966;-78
2022/03/19 10:31:02;;;;;;;28.67;19.90;;;14.70;99.90;;;;;;4969695;28;20507;-78
2022/03/19 10:33:31;;;;;;;30.50;20.80;;;15.10;99.90;;;;;;4969990;28;20496;-78
2022/03/19 10:36:07;;;;;;;26.33;20.53;;;15.20;99.90;;;;;;4969304;28;20479;-78
2022/03/19 10:38:42;;;;;;;29.47;19.63;;;15.40;99.90;;;;;;4969544;28;20831;-77
2022/03/19 10:41:09;;;;;;;24.53;18.10;;;15.50;99.90;;;;;;4969468;28;20486;-77
2022/03/19 10:43:36;;;;;;;28.37;18.50;;;15.30;99.90;;;;;;4969207;28;21262;-77
2022/03/19 10:46:04;;;;;;;24.07;15.43;;;15.30;99.90;;;;;;4969613;28;20547;-77
2022/03/19 10:48:32;;;;;;;19.67;14.53;;;15.50;99.90;;;;;;4968475;28;20484;-77
2022/03/19 10:51:01;;;;;;;22.07;15.07;;;15.50;99.90;;;;;;4969510;28;20487;-77
2022/03/19 10:53:28;;;;;;;21.87;14.30;;;15.80;99.90;;;;;;4969584;28;21035;-77
2022/03/19 10:55:55;;;;;;;23.60;14.93;;;16.10;99.90;;;;;;4969543;28;20460;-77
2022/03/19 10:58:22;;;;;;;23.30;15.13;;;16.60;99.90;;;;;;4968235;28;20539;-78
2022/03/19 11:00:51;;;;;;;22.53;13.70;;;17.00;99.90;;;;;;4968463;28;20875;-77
2022/03/19 11:03:20;;;;;;;18.90;12.73;;;17.20;99.90;;;;;;4968366;28;20448;-78
2022/03/19 11:05:51;;;;;;;16.67;11.43;;;17.30;99.90;;;;;;4968664;28;20829;-77
2022/03/19 11:08:20;;;;;;;19.27;12.80;;;16.90;99.90;;;;;;4968253;28;20492;-77
2022/03/19 11:10:50;;;;;;;16.90;10.97;;;16.50;99.90;;;;;;4968553;28;20579;-77
2022/03/19 11:13:22;;;;;;;16.90;12.23;;;16.00;99.90;;;;;;4968410;28;20575;-77
2022/03/19 11:15:54;;;;;;;16.00;11.83;;;15.60;99.90;;;;;;4968703;28;20457;-77
2022/03/19 11:18:21;;;;;;;17.27;12.47;;;15.50;99.90;;;;;;4967756;28;20464;-77
2022/03/19 11:20:50;;;;;;;17.87;12.13;;;15.50;99.90;;;;;;4968726;28;20543;-77
2022/03/19 11:23:24;;;;;;;16.27;11.20;;;15.80;99.90;;;;;;4969053;28;20544;-77
2022/03/19 11:25:54;;;;;;;19.97;12.03;;;16.30;99.90;;;;;;4968582;28;20467;-77
2022/03/19 11:28:22;;;;;;;20.90;12.37;;;16.60;99.90;;;;;;4967895;28;20463;-77
2022/03/19 11:31:01;;;;;;;18.30;11.80;;;16.20;99.90;;;;;;4968376;28;20506;-77
2022/03/19 11:33:31;;;;;;;18.60;12.33;;;16.00;99.90;;;;;;4968552;28;20497;-77
2022/03/19 11:36:09;;;;;;;18.70;11.57;;;15.70;99.90;;;;;;4968896;28;20456;-77
2022/03/19 11:38:41;;;;;;;19.70;12.00;;;15.30;99.90;;;;;;4968867;28;20607;-76
2022/03/19 11:41:19;;;;;;;17.37;11.90;;;15.20;99.90;;;;;;4968022;28;20476;-76
2022/03/19 11:43:46;;;;;;;19.67;11.50;;;15.00;99.90;;;;;;4967973;28;20448;-76
2022/03/19 11:46:13;;;;;;;20.00;12.60;;;14.90;99.90;;;;;;4967571;28;20848;-76
2022/03/19 11:48:48;;;;;;;18.40;12.43;;;14.70;99.90;;;;;;4967670;28;20451;-76
2022/03/19 11:51:44;;;;;;;17.50;11.63;;;14.60;99.90;;;;;;4967913;28;20472;-76
2022/03/19 11:54:12;;;;;;;15.47;10.47;;;14.80;99.90;;;;;;4967517;28;20502;-76
2022/03/19 11:57:06;;;;;;;18.67;10.83;;;15.20;99.90;;;;;;4966937;28;20456;-76
2022/03/19 11:59:44;;;;;;;15.10;10.83;;;15.40;98.90;;;;;;4967939;28;20456;-76
2022/03/19 12:02:12;;;;;;;13.50;10.00;;;15.60;99.90;;;;;;4967078;28;20488;-76
2022/03/19 12:04:45;;;;;;;14.67;10.17;;;16.10;99.90;;;;;;4965498;28;20945;-76
2022/03/19 12:07:33;;;;;;;17.67;9.60;;;16.60;99.30;;;;;;4965889;28;20547;-76
2022/03/19 12:10:01;;;;;;;13.33;9.00;;;17.00;99.90;;;;;;4965910;28;20543;-76
2022/03/19 12:12:28;;;;;;;13.50;9.10;;;17.30;96.30;;;;;;4966238;28;20484;-76
2022/03/19 12:14:57;;;;;;;11.27;8.30;;;16.90;94.00;;;;;;4966203;28;20503;-76
2022/03/19 12:17:31;;;;;;;11.90;8.50;;;16.60;94.40;;;;;;4965478;28;20464;-75
2022/03/19 12:20:01;;;;;;;11.23;7.50;;;16.30;93.80;;;;;;4966273;28;20551;-76
2022/03/19 12:22:31;;;;;;;10.33;7.47;;;16.40;94.70;;;;;;4966676;28;21030;-76
2022/03/19 12:25:16;;;;;;;11.10;7.80;;;16.70;94.40;;;;;;4966537;28;20457;-76
2022/03/19 12:27:45;;;;;;;10.97;7.10;;;16.70;93.20;;;;;;4965210;28;20562;-76
2022/03/19 12:30:12;;;;;;;12.17;7.93;;;16.80;92.10;;;;;;4965977;28;20456;-76
2022/03/19 12:32:48;;;;;;;13.03;7.50;;;16.80;92.80;;;;;;4966487;28;20452;-75
2022/03/19 12:35:15;;;;;;;14.20;8.90;;;16.70;92.90;;;;;;4966614;28;20531;-76
2022/03/19 12:37:50;;;;;;;10.63;7.13;;;16.80;93.40;;;;;;4965998;28;20464;-77
2022/03/19 12:40:22;;;;;;;15.30;7.87;;;16.80;91.40;;;;;;4966378;28;20968;-77
2022/03/19 12:42:54;;;;;;;12.10;7.67;;;17.40;92.50;;;;;;4966493;28;20456;-77
2022/03/19 12:45:22;;;;;;;9.67;7.43;;;17.70;91.90;;;;;;4966095;28;20457;-77
2022/03/19 12:47:52;;;;;;;11.37;6.87;;;17.70;91.50;;;;;;4966467;28;20464;-76
2022/03/19 12:50:19;;;;;;;9.37;6.27;;;17.80;89.50;;;;;;4966730;28;20542;-77
2022/03/19 12:52:47;;;;;;;11.33;6.47;;;18.00;89.40;;;;;;4966826;28;20448;-76
2022/03/19 12:55:24;;;;;;;9.20;6.00;;;17.90;87.90;;;;;;4966543;28;20496;-77
2022/03/19 12:57:56;;;;;;;8.70;6.00;;;18.10;89.70;;;;;;4965250;28;20454;-76
2022/03/19 13:00:23;;;;;;;10.20;6.50;;;18.10;91.00;;;;;;4965631;28;20459;-76
2022/03/19 13:02:51;;;;;;;8.63;5.50;;;17.70;88.50;;;;;;4965501;28;20460;-76
2022/03/19 13:05:18;;;;;;;9.23;5.93;;;17.10;87.70;;;;;;4966124;28;20484;-76
2022/03/19 13:08:03;;;;;;;11.00;6.20;;;16.90;90.50;;;;;;4965784;28;20462;-77
2022/03/19 13:10:40;;;;;;;7.70;5.07;;;16.80;89.90;;;;;;4966738;28;20457;-76
2022/03/19 13:13:09;;;;;;;8.33;5.40;;;16.70;90.40;;;;;;4966350;28;20460;-77
2022/03/19 13:15:36;;;;;;;8.90;4.67;;;16.80;90.30;;;;;;4966800;28;20504;-74
2022/03/19 13:18:03;;;;;;;8.13;5.10;;;16.70;88.20;;;;;;4965394;28;20463;-72
2022/03/19 13:20:30;;;;;;;9.60;6.10;;;16.50;88.40;;;;;;4965821;28;20464;-72
2022/03/19 13:23:01;;;;;;;7.00;5.57;;;16.40;84.90;;;;;;4969031;28;20460;-72
2022/03/19 13:25:31;;;;;;;7.77;5.13;;;16.20;86.10;;;;;;4970778;28;20646;-76
2022/03/19 13:28:04;;;;;;;9.53;4.90;;;16.30;88.50;;;;;;4969772;28;20467;-76
2022/03/19 13:30:31;;;;;;;9.43;5.13;;;16.30;86.90;;;;;;4970157;28;20467;-77
2022/03/19 13:32:59;;;;;;;7.53;5.00;;;16.20;84.40;;;;;;4970040;28;20452;-70
2022/03/19 13:35:39;;;;;;;8.43;4.70;;;16.10;85.70;;;;;;4970439;28;20579;-76
2022/03/19 13:38:10;;;;;;;8.27;4.40;;;16.10;83.10;;;;;;4969787;28;20498;-76
2022/03/19 13:40:39;;;;;;;6.67;4.20;;;16.10;83.00;;;;;;4970397;28;20476;-77
2022/03/19 13:43:07;;;;;;;9.57;4.90;;;16.10;83.10;;;;;;4970101;28;20803;-77
2022/03/19 13:45:34;;;;;;;7.60;4.70;;;16.20;82.90;;;;;;4969769;28;20930;-77
2022/03/19 13:48:05;;;;;;;7.83;4.53;;;16.40;82.80;;;;;;4968507;28;20262;-77
2022/03/19 13:50:35;;;;;;;7.80;3.90;;;16.40;78.70;;;;;;4969537;28;20463;-77
2022/03/19 13:53:02;;;;;;;5.90;3.80;;;16.30;78.70;;;;;;4970380;28;20531;-77
2022/03/19 13:55:38;;;;;;;5.47;3.80;;;16.20;76.90;;;;;;4969660;28;20492;-77
2022/03/19 13:58:09;;;;;;;5.07;3.80;;;16.30;76.60;;;;;;4969245;28;20460;-77
2022/03/19 14:00:39;;;;;;;6.43;3.60;;;16.40;76.00;;;;;;4970204;28;20575;-77
2022/03/19 14:03:08;;;;;;;6.70;3.47;;;16.60;75.70;;;;;;4970295;28;20527;-76
2022/03/19 14:05:37;;;;;;;6.53;3.33;;;16.70;78.20;;;;;;4969694;28;20804;-77
2022/03/19 14:08:06;;;;;;;5.20;3.10;;;16.90;76.20;;;;;;4968880;28;20453;-77
2022/03/19 14:10:35;;;;;;;4.83;3.50;;;16.90;74.70;;;;;;4969022;28;20482;-77
2022/03/19 14:13:08;;;;;;;7.60;3.60;;;16.80;72.70;;;;;;4969566;28;20457;-78
2022/03/19 14:15:40;;;;;;;9.07;3.83;;;16.70;71.80;;;;;;4970000;28;20496;-77
2022/03/19 14:18:07;;;;;;;4.90;3.60;;;16.80;74.10;;;;;;4969475;28;20460;-78
2022/03/19 14:20:35;;;;;;;6.00;3.07;;;17.00;72.90;;;;;;4971683;28;20923;-78
2022/03/19 14:23:02;;;;;;;6.17;3.80;;;17.10;70.80;;;;;;4971873;28;20459;-78
2022/03/19 14:25:29;;;;;;;8.47;4.30;;;17.00;70.60;;;;;;4970422;28;20452;-78
2022/03/19 14:28:08;;;;;;;8.20;3.40;;;16.70;69.10;;;;;;4969656;28;20807;-78
2022/03/19 14:30:36;;;;;;;6.13;3.23;;;16.50;71.00;;;;;;4970778;28;20468;-78
2022/03/19 14:33:03;;;;;;;5.00;3.63;;;16.50;70.90;;;;;;4968055;28;20460;-78
2022/03/19 14:35:49;;;;;;;7.73;3.37;;;16.30;67.90;;;;;;4968536;28;20496;-77
2022/03/19 14:38:18;;;;;;;4.50;3.30;;;16.20;68.60;;;;;;4969760;28;20531;-78
2022/03/19 14:40:46;;;;;;;4.73;3.33;;;16.20;69.20;;;;;;4963422;28;20473;-78
2022/03/19 14:43:15;;;;;;;7.17;3.53;;;16.30;69.00;;;;;;4962575;28;20453;-78
2022/03/19 14:45:47;;;;;;;8.00;3.50;;;16.00;68.20;;;;;;4957854;28;20450;-78
2022/03/19 14:48:14;;;;;;;5.03;3.10;;;15.90;68.60;;;;;;4956997;28;20572;-78
2022/03/19 14:50:42;;;;;;;5.27;3.57;;;16.00;67.10;;;;;;4960185;28;20484;-78
2022/03/19 14:53:09;;;;;;;5.90;3.33;;;16.00;68.90;;;;;;4958645;28;20456;-78
2022/03/19 14:55:38;;;;;;;4.40;3.30;;;16.10;69.50;;;;;;4959124;28;20488;-78
2022/03/19 14:58:05;;;;;;;5.83;3.50;;;16.10;69.10;;;;;;4959829;28;20556;-78
2022/03/19 15:00:33;;;;;;;5.30;3.43;;;15.90;68.80;;;;;;4957902;28;20532;-78
2022/03/19 15:03:00;;;;;;;7.57;4.80;;;15.70;69.10;;;;;;4958371;28;20822;-78
2022/03/19 15:05:27;;;;;;;11.83;5.77;;;15.30;74.30;;;;;;4957400;28;20449;-78
2022/03/19 15:07:55;;;;;;;12.33;7.07;;;15.00;82.40;;;;;;4956855;28;20666;-78
2022/03/19 15:10:22;;;;;;;11.03;7.60;;;14.50;86.10;;;;;;4956938;28;20457;-77
2022/03/19 15:12:50;;;;;;;11.50;6.20;;;14.20;87.80;;;;;;4966083;28;20448;-77
2022/03/19 15:15:17;;;;;;;12.60;5.90;;;14.00;89.80;;;;;;4968681;28;20532;-78
2022/03/19 15:17:45;;;;;;;10.10;5.40;;;13.80;90.40;;;;;;4967807;28;20463;-77
2022/03/19 15:20:13;;;;;;;10.53;6.00;;;13.60;90.90;;;;;;4968591;28;21271;-77
2022/03/19 15:22:41;;;;;;;9.23;4.47;;;13.30;90.90;;;;;;4968693;28;20460;-77
2022/03/19 15:25:10;;;;;;;7.57;5.00;;;13.00;90.90;;;;;;4968507;28;20987;-77
2022/03/19 15:27:38;;;;;;;7.27;5.17;;;12.80;91.40;;;;;;4967634;28;20480;-77
2022/03/19 15:30:07;;;;;;;6.97;5.40;;;12.60;91.70;;;;;;4968672;28;20520;-78
2022/03/19 15:32:35;;;;;;;8.17;5.50;;;12.40;91.70;;;;;;4968321;28;20535;-77
2022/03/19 15:35:04;;;;;;;10.17;5.50;;;12.20;91.80;;;;;;4968410;28;20501;-77
2022/03/19 15:37:33;;;;;;;11.10;5.43;;;12.10;91.80;;;;;;4967806;28;20540;-77
2022/03/19 15:40:00;;;;;;;7.37;4.93;;;12.00;92.10;;;;;;4968216;28;20563;-79
2022/03/19 15:42:27;;;;;;;6.77;4.40;;;12.10;93.10;;;;;;4968240;28;20468;-77
2022/03/19 15:44:54;;;;;;;6.37;4.33;;;12.30;93.40;;;;;;4967077;28;21035;-77
2022/03/19 15:47:21;;;;;;;6.93;5.13;;;12.70;93.80;;;;;;4967580;28;20460;-77
2022/03/19 15:49:47;;;;;;;6.60;4.70;;;13.00;93.90;;;;;;4967888;28;20464;-77
2022/03/19 15:52:16;;;;;;;10.00;5.87;;;13.10;94.30;;;;;;4964161;28;20472;-76
2022/03/19 15:54:42;;;;;;;7.67;4.80;;;13.20;94.10;;;;;;4967214;28;20496;-77
2022/03/19 15:57:09;;;;;;;7.50;6.00;;;13.30;94.60;;;;;;4967286;28;20464;-77
2022/03/19 15:59:36;;;;;;;5.57;4.40;;;13.60;95.00;;;;;;4967897;28;20543;-77
2022/03/19 16:02:04;;;;;;;7.07;5.60;;;13.80;94.60;;;;;;4967435;28;20503;-77
2022/03/19 16:04:30;;;;;;;5.80;4.70;;;14.00;94.80;;;;;;4965763;28;20455;-76
2022/03/19 16:06:57;;;;;;;8.50;5.93;;;14.00;94.90;;;;;;4966057;28;20467;-77
2022/03/19 16:09:26;;;;;;;7.97;5.70;;;14.00;94.80;;;;;;4966204;28;20812;-77
2022/03/19 16:11:52;;;;;;;7.50;6.17;;;14.00;95.10;;;;;;4966219;28;20487;-77
2022/03/19 16:14:19;;;;;;;8.27;5.93;;;14.00;95.10;;;;;;4966507;28;20974;-77
2022/03/19 16:16:46;;;;;;;8.53;6.40;;;14.00;95.20;;;;;;4957872;28;21291;-77
2022/03/19 16:19:13;;;;;;;8.23;6.40;;;13.80;94.80;;;;;;4947203;28;21080;-76
2022/03/19 16:21:40;;;;;;;11.77;6.03;;;13.80;94.70;;;;;;4946936;29;20486;-76
2022/03/19 16:24:07;;;;;;;7.40;6.00;;;13.70;94.90;;;;;;4946643;29;21184;-76
2022/03/19 16:26:36;;;;;;;10.00;6.30;;;13.80;94.60;;;;;;4946433;29;20489;-76
2022/03/19 16:29:03;;;;;;;12.90;6.60;;;13.70;94.10;;;;;;4946793;28;20461;-76
2022/03/19 16:31:29;;;;;;;7.10;6.07;;;13.60;94.30;;;;;;4946777;29;20484;-77
2022/03/19 16:33:56;;;;;;;9.47;6.47;;;13.50;94.50;;;;;;4947097;29;20545;-76
2022/03/19 16:36:23;;;;;;;8.63;6.57;;;13.10;94.60;;;;;;4945991;29;20612;-77
2022/03/19 16:38:50;;;;;;;12.40;7.00;;;12.90;94.90;;;;;;4946483;28;21031;-77
2022/03/19 16:41:17;;;;;;;11.20;7.00;;;12.70;95.40;;;;;;4946568;29;20479;-77
2022/03/19 16:43:45;;;;;;;11.00;7.80;;;12.60;95.50;;;;;;4947963;28;20984;-77
2022/03/19 16:46:14;;;;;;;11.97;7.70;;;12.30;95.80;;;;;;4946930;29;20546;-76
2022/03/19 16:48:41;;;;;;;13.40;7.60;;;12.00;96.60;;;;;;4946311;28;20461;-77
2022/03/19 16:51:08;;;;;;;13.07;8.30;;;11.90;96.80;;;;;;4946440;29;20485;-77
2022/03/19 16:53:36;;;;;;;11.00;7.90;;;11.70;96.90;;;;;;4948236;29;20900;-77
2022/03/19 16:56:02;;;;;;;10.43;7.00;;;11.60;97.40;;;;;;4948786;28;20587;-77
2022/03/19 16:58:29;;;;;;;12.53;7.73;;;11.40;97.60;;;;;;4952628;29;20464;-78
2022/03/19 17:00:58;;;;;;;11.00;7.10;;;11.30;97.90;;;;;;4953806;29;20479;-77
2022/03/19 17:03:24;;;;;;;10.40;7.17;;;10.90;98.10;;;;;;4953570;28;20453;-78
2022/03/19 17:05:51;;;;;;;11.43;7.67;;;10.80;98.50;;;;;;4954125;29;20463;-77
2022/03/19 17:08:18;;;;;;;11.00;8.43;;;10.70;98.90;;;;;;4952994;28;20492;-77
2022/03/19 17:10:45;;;;;;;10.97;6.60;;;10.60;99.40;;;;;;4953477;29;21058;-77
2022/03/19 17:13:12;;;;;;;10.97;7.93;;;10.40;99.50;;;;;;4953869;28;20548;-77
2022/03/19 17:15:39;;;;;;;9.97;7.30;;;10.20;99.90;;;;;;4953441;28;21046;-77
2022/03/19 17:18:10;;;;;;;15.53;8.57;;;10.10;99.90;;;;;;4952730;28;20489;-77
2022/03/19 17:20:37;;;;;;;11.80;8.30;;;9.90;99.90;;;;;;4951654;28;20485;-77
2022/03/19 17:23:04;;;;;;;14.03;8.63;;;9.70;99.90;;;;;;4953873;29;20457;-76
2022/03/19 17:25:31;;;;;;;12.03;8.27;;;9.60;99.90;;;;;;4954004;29;20535;-77
2022/03/19 17:27:58;;;;;;;13.83;8.90;;;9.50;99.90;;;;;;4953477;28;20958;-77
2022/03/19 17:30:25;;;;;;;14.13;9.87;;;9.40;99.90;;;;;;4954183;28;20465;-76
2022/03/19 17:32:51;;;;;;;14.37;10.17;;;9.30;99.90;;;;;;4954949;28;20568;-77
2022/03/19 17:35:20;;;;;;;12.70;8.73;;;9.20;99.90;;;;;;4954155;28;20505;-76
2022/03/19 17:37:47;;;;;;;14.10;9.03;;;9.20;99.90;;;;;;4952097;29;20548;-76
2022/03/19 17:40:14;;;;;;;12.17;8.13;;;9.10;99.90;;;;;;4953577;29;20465;-77
2022/03/19 17:42:41;;;;;;;13.33;9.43;;;9.10;99.90;;;;;;4953699;28;20451;-76
2022/03/19 17:45:15;;;;;;;14.10;10.10;;;9.00;99.90;;;;;;4953615;29;20516;-77
2022/03/19 17:47:43;;;;;;;10.47;8.13;;;8.90;99.90;;;;;;4953126;28;20468;-77
2022/03/19 17:50:12;;;;;;;15.23;8.93;;;8.90;99.90;;;;;;4953596;29;20473;-77
2022/03/19 17:52:41;;;;;;;14.67;9.97;;;8.80;99.90;;;;;;4953601;28;20527;-77
2022/03/19 17:55:11;;;;;;;12.63;8.47;;;8.70;99.90;;;;;;4953503;29;20514;-77
2022/03/19 17:57:38;;;;;;;11.70;8.20;;;8.80;99.90;;;;;;4952787;28;20508;-77
2022/03/19 18:00:06;;;;;;;16.27;9.17;;;8.80;99.90;;;;;;4953531;28;20458;-77